Little Lake, CA

2:28 AM PDT on September 16, 2014 (GMT -0700)
Mojave | Change Station
CLOSE
Current Station
Airport
Location: Mojave,
Elevation: 2785 ft
Nearby Weather Stations

Elev 2785 ft 35.06 °N, 118.15 °W | Updated 13 minutes ago

Clear
Clear
81 °F
Feels Like 81 °F
N
12
Wind Variable Wind from WNW

Today
High -- | Low -- °F
--% Chance of Precip.
Yesterday
High -- | Low -- °F
Precip. -- in
6:35 AM 6:57 PM
Waning Gibbous, 47% visible
Pressure 29.96 in
Visibility 10.0 miles
Clouds Clear
Dew Point 48 °F
Humidity 32%
Rainfall 0.00 in
Snow Depth 0 in , 0 in , 1 in
UV 0 out of 12
Pollen 7.70 out of 12
Air Quality Not available.
Flu Activity Not available.
METAR KMHV 160915Z AUTO 30010KT 10SM CLR 27/09 A2996 RMK AO1

More Conditions Fewer Conditions

Pressure 29.96 in
Visibility 10.0 miles
Clouds Clear
Dew Point 48 °F
Humidity 32%
Rainfall 0.00 in
Snow Depth 0 in , 0 in , 1 in
UV 0 out of 12
Pollen 7.70 out of 12
Air Quality Not available.
Flu Activity Not available.
METAR KMHV 160915Z AUTO 30010KT 10SM CLR 27/09 A2996 RMK AO1

More Conditions Fewer Conditions

10-Day Weather Forecast

Almanac

Astronomy

Sep. 16, 2014 Rise Set
Actual Time 6:35 AM PDT 6:57 PM PDT
Civil Twilight 6:09 AM PDT 7:22 PM PDT
Nautical Twilight 5:39 AM PDT 7:52 PM PDT
Astronomical Twilight 5:08 AM PDT 8:23 PM PDT
Moon No Moon Rise 2:16 PM PDT
Length of Visible Light 13h 13m
Length of Day
12h 22m
Tomorrow will be 2m 15s shorter.
Waning Gibbous, 47% of the Moon is Illuminated
Today
Waning Gibbous
Sep 24
New
Oct 1
First Quarter
Oct 8
Full
Oct 15
Last Quarter

Today's Extremes

State Highs State Lows

Community

WunderPhotos

Upload Photos

1,753,714 photos uploaded!

WunderBlogs® & News

Nearby

Snow Depth

Station Depth Elevation
Leavitt Meadows 0 in 7200 ft
Leavitt Lake 0 in 9400 ft
Spratt Creek 1 in 6200 ft
Monitor Pass 0 in 8350 ft
Hagan's Meadow 1 in 8000 ft

Earthquake Activity

City Distance Mag. Time & Date
Inyokern, California 5 miles 3.2 5:56 PM PDT
2014-09-14
Minimum magnitude displayed is 2.5.

Coastal Water Temperatures

Place Temperature
No Stations Reporting

Nearby Weather Stations